Terminal Aerodrome Forecast
Issued by NWS Shreveport, LA

Current Version | Previous Version | Text Only | Print | Product List | Glossary On
Versions: 1 2 3 4 5 6 7 8 9 10 11 12
000
FTUS44 KSHV 282324
TAFSHV
TAF
KSHV 282324Z 2900/2924 16004KT P6SM SKC
     FM291400 VRB06KT P6SM SKC
     FM291600 VRB06KT P6SM SCT040
     FM292000 VRB06KT P6SM SCT060=

USA.gov is the U.S. government's official web portal to all federal, state and local government web resources and services.